sensor_id;sensor_type;location;lat;lon;timestamp;P1;durP1;ratioP1;P2;durP2;ratioP2
21000;SDS011;10658;50.920;12.238;2024-01-25T00:02:52;13.90;;;3.67;;
21000;SDS011;10658;50.920;12.238;2024-01-25T00:06:53;11.30;;;3.38;;
21000;SDS011;10658;50.920;12.238;2024-01-25T00:10:54;10.10;;;4.53;;
21000;SDS011;10658;50.920;12.238;2024-01-25T00:14:54;11.18;;;3.33;;
21000;SDS011;10658;50.920;12.238;2024-01-25T00:18:55;13.10;;;2.92;;
21000;SDS011;10658;50.920;12.238;2024-01-25T00:22:56;15.25;;;2.92;;
21000;SDS011;10658;50.920;12.238;2024-01-25T00:26:57;9.90;;;3.22;;
21000;SDS011;10658;50.920;12.238;2024-01-25T00:30:57;14.20;;;3.28;;
21000;SDS011;10658;50.920;12.238;2024-01-25T00:34:58;14.77;;;3.33;;
21000;SDS011;10658;50.920;12.238;2024-01-25T00:38:59;7.90;;;2.40;;
21000;SDS011;10658;50.920;12.238;2024-01-25T00:43:00;15.95;;;2.95;;
21000;SDS011;10658;50.920;12.238;2024-01-25T00:47:01;10.60;;;3.05;;
21000;SDS011;10658;50.920;12.238;2024-01-25T00:51:03;8.98;;;3.13;;
21000;SDS011;10658;50.920;12.238;2024-01-25T00:55:07;13.18;;;3.30;;
21000;SDS011;10658;50.920;12.238;2024-01-25T00:59:09;11.68;;;3.15;;
21000;SDS011;10658;50.920;12.238;2024-01-25T01:03:11;12.95;;;3.15;;
21000;SDS011;10658;50.920;12.238;2024-01-25T01:07:13;14.18;;;3.10;;
21000;SDS011;10658;50.920;12.238;2024-01-25T01:11:14;10.38;;;2.92;;
21000;SDS011;10658;50.920;12.238;2024-01-25T01:15:15;11.65;;;2.28;;
21000;SDS011;10658;50.920;12.238;2024-01-25T01:19:16;11.48;;;3.00;;
21000;SDS011;10658;50.920;12.238;2024-01-25T01:23:17;13.32;;;3.33;;
21000;SDS011;10658;50.920;12.238;2024-01-25T01:27:18;15.52;;;3.45;;
21000;SDS011;10658;50.920;12.238;2024-01-25T01:31:20;10.38;;;3.55;;
21000;SDS011;10658;50.920;12.238;2024-01-25T01:35:22;12.00;;;3.05;;
21000;SDS011;10658;50.920;12.238;2024-01-25T01:39:22;12.85;;;3.13;;
21000;SDS011;10658;50.920;12.238;2024-01-25T01:43:23;10.85;;;3.95;;
21000;SDS011;10658;50.920;12.238;2024-01-25T01:47:24;10.02;;;2.90;;
21000;SDS011;10658;50.920;12.238;2024-01-25T01:51:25;11.70;;;3.28;;
21000;SDS011;10658;50.920;12.238;2024-01-25T01:55:27;9.75;;;3.08;;
21000;SDS011;10658;50.920;12.238;2024-01-25T01:59:28;15.00;;;3.70;;
21000;SDS011;10658;50.920;12.238;2024-01-25T02:03:29;14.38;;;3.58;;
21000;SDS011;10658;50.920;12.238;2024-01-25T02:07:30;11.73;;;4.07;;
21000;SDS011;10658;50.920;12.238;2024-01-25T02:11:31;9.43;;;2.80;;
21000;SDS011;10658;50.920;12.238;2024-01-25T02:15:32;7.88;;;3.30;;
21000;SDS011;10658;50.920;12.238;2024-01-25T02:19:33;10.85;;;3.65;;
21000;SDS011;10658;50.920;12.238;2024-01-25T02:23:34;11.32;;;3.17;;
21000;SDS011;10658;50.920;12.238;2024-01-25T02:27:34;15.93;;;4.50;;
21000;SDS011;10658;50.920;12.238;2024-01-25T02:31:38;8.20;;;2.47;;
21000;SDS011;10658;50.920;12.238;2024-01-25T02:35:39;13.57;;;3.47;;
21000;SDS011;10658;50.920;12.238;2024-01-25T02:39:40;10.52;;;2.92;;
21000;SDS011;10658;50.920;12.238;2024-01-25T02:43:41;13.63;;;3.35;;
21000;SDS011;10658;50.920;12.238;2024-01-25T02:47:42;11.10;;;3.20;;
21000;SDS011;10658;50.920;12.238;2024-01-25T02:51:43;13.57;;;2.95;;
21000;SDS011;10658;50.920;12.238;2024-01-25T02:55:44;12.63;;;3.15;;
21000;SDS011;10658;50.920;12.238;2024-01-25T02:59:44;14.57;;;3.75;;
21000;SDS011;10658;50.920;12.238;2024-01-25T03:03:47;10.23;;;3.65;;
21000;SDS011;10658;50.920;12.238;2024-01-25T03:07:47;10.60;;;3.00;;
21000;SDS011;10658;50.920;12.238;2024-01-25T03:11:48;7.78;;;3.30;;
21000;SDS011;10658;50.920;12.238;2024-01-25T03:15:49;6.80;;;3.13;;
21000;SDS011;10658;50.920;12.238;2024-01-25T03:19:50;13.32;;;3.53;;
21000;SDS011;10658;50.920;12.238;2024-01-25T03:23:51;13.95;;;4.10;;
21000;SDS011;10658;50.920;12.238;2024-01-25T03:27:52;10.85;;;3.53;;
21000;SDS011;10658;50.920;12.238;2024-01-25T03:31:52;13.60;;;3.67;;
21000;SDS011;10658;50.920;12.238;2024-01-25T03:35:53;12.27;;;3.33;;
21000;SDS011;10658;50.920;12.238;2024-01-25T03:39:54;7.57;;;3.17;;
21000;SDS011;10658;50.920;12.238;2024-01-25T03:43:55;10.13;;;3.60;;
21000;SDS011;10658;50.920;12.238;2024-01-25T03:47:56;11.10;;;3.88;;
21000;SDS011;10658;50.920;12.238;2024-01-25T03:51:57;14.05;;;4.00;;
21000;SDS011;10658;50.920;12.238;2024-01-25T03:55:58;10.18;;;3.55;;
21000;SDS011;10658;50.920;12.238;2024-01-25T03:59:59;22.05;;;4.95;;
21000;SDS011;10658;50.920;12.238;2024-01-25T04:03:59;15.45;;;3.58;;
21000;SDS011;10658;50.920;12.238;2024-01-25T04:08:00;20.90;;;4.43;;
21000;SDS011;10658;50.920;12.238;2024-01-25T04:12:01;14.00;;;3.42;;
21000;SDS011;10658;50.920;12.238;2024-01-25T04:16:02;11.38;;;4.13;;
21000;SDS011;10658;50.920;12.238;2024-01-25T04:20:03;19.77;;;5.53;;
21000;SDS011;10658;50.920;12.238;2024-01-25T04:24:04;13.60;;;3.65;;
21000;SDS011;10658;50.920;12.238;2024-01-25T04:28:05;10.70;;;4.00;;
21000;SDS011;10658;50.920;12.238;2024-01-25T04:32:06;15.75;;;3.65;;
21000;SDS011;10658;50.920;12.238;2024-01-25T04:36:07;18.17;;;4.05;;
21000;SDS011;10658;50.920;12.238;2024-01-25T04:40:08;8.20;;;2.75;;
21000;SDS011;10658;50.920;12.238;2024-01-25T04:44:09;19.25;;;5.07;;
21000;SDS011;10658;50.920;12.238;2024-01-25T04:48:10;9.55;;;3.80;;
21000;SDS011;10658;50.920;12.238;2024-01-25T04:52:11;15.55;;;4.13;;
21000;SDS011;10658;50.920;12.238;2024-01-25T04:56:16;12.32;;;3.83;;
21000;SDS011;10658;50.920;12.238;2024-01-25T05:00:17;15.05;;;3.78;;
21000;SDS011;10658;50.920;12.238;2024-01-25T05:04:18;13.30;;;5.18;;
21000;SDS011;10658;50.920;12.238;2024-01-25T05:08:19;16.13;;;3.92;;
21000;SDS011;10658;50.920;12.238;2024-01-25T05:12:20;9.70;;;3.75;;
21000;SDS011;10658;50.920;12.238;2024-01-25T05:16:21;14.70;;;3.72;;
21000;SDS011;10658;50.920;12.238;2024-01-25T05:20:21;11.98;;;3.78;;
21000;SDS011;10658;50.920;12.238;2024-01-25T05:24:22;12.50;;;2.97;;
21000;SDS011;10658;50.920;12.238;2024-01-25T05:28:23;12.55;;;3.70;;
21000;SDS011;10658;50.920;12.238;2024-01-25T05:32:25;10.98;;;3.65;;
21000;SDS011;10658;50.920;12.238;2024-01-25T05:36:25;12.15;;;3.88;;
21000;SDS011;10658;50.920;12.238;2024-01-25T05:40:26;12.98;;;3.67;;
21000;SDS011;10658;50.920;12.238;2024-01-25T05:44:27;6.78;;;3.13;;
21000;SDS011;10658;50.920;12.238;2024-01-25T05:48:29;7.88;;;2.72;;
21000;SDS011;10658;50.920;12.238;2024-01-25T05:52:29;11.88;;;3.15;;
21000;SDS011;10658;50.920;12.238;2024-01-25T05:56:31;11.02;;;3.17;;
21000;SDS011;10658;50.920;12.238;2024-01-25T06:00:32;10.02;;;2.92;;
21000;SDS011;10658;50.920;12.238;2024-01-25T06:04:34;10.82;;;3.10;;
21000;SDS011;10658;50.920;12.238;2024-01-25T06:08:35;10.45;;;3.17;;
21000;SDS011;10658;50.920;12.238;2024-01-25T06:12:35;14.00;;;3.08;;
21000;SDS011;10658;50.920;12.238;2024-01-25T06:16:36;11.15;;;2.80;;
21000;SDS011;10658;50.920;12.238;2024-01-25T06:20:37;9.63;;;2.53;;
21000;SDS011;10658;50.920;12.238;2024-01-25T06:24:38;8.60;;;2.80;;
21000;SDS011;10658;50.920;12.238;2024-01-25T06:28:40;11.70;;;3.47;;
21000;SDS011;10658;50.920;12.238;2024-01-25T06:32:41;11.13;;;3.47;;
21000;SDS011;10658;50.920;12.238;2024-01-25T06:36:42;9.70;;;3.25;;
21000;SDS011;10658;50.920;12.238;2024-01-25T06:40:42;9.57;;;3.03;;
21000;SDS011;10658;50.920;12.238;2024-01-25T06:44:44;8.48;;;2.38;;
21000;SDS011;10658;50.920;12.238;2024-01-25T06:48:45;12.35;;;2.72;;
21000;SDS011;10658;50.920;12.238;2024-01-25T06:52:45;9.68;;;3.03;;
21000;SDS011;10658;50.920;12.238;2024-01-25T06:56:46;8.60;;;2.13;;
21000;SDS011;10658;50.920;12.238;2024-01-25T07:00:47;15.07;;;3.10;;
21000;SDS011;10658;50.920;12.238;2024-01-25T07:04:48;7.65;;;1.90;;
21000;SDS011;10658;50.920;12.238;2024-01-25T07:08:53;9.50;;;3.20;;
21000;SDS011;10658;50.920;12.238;2024-01-25T07:12:54;11.38;;;2.53;;
21000;SDS011;10658;50.920;12.238;2024-01-25T07:16:55;12.13;;;2.58;;
21000;SDS011;10658;50.920;12.238;2024-01-25T07:20:55;8.45;;;2.75;;
21000;SDS011;10658;50.920;12.238;2024-01-25T07:24:57;14.15;;;2.75;;
21000;SDS011;10658;50.920;12.238;2024-01-25T07:28:58;10.95;;;2.50;;
21000;SDS011;10658;50.920;12.238;2024-01-25T07:32:59;3.53;;;1.88;;
21000;SDS011;10658;50.920;12.238;2024-01-25T07:37:02;5.57;;;1.95;;
21000;SDS011;10658;50.920;12.238;2024-01-25T07:41:03;7.43;;;2.10;;
21000;SDS011;10658;50.920;12.238;2024-01-25T07:45:04;8.25;;;2.30;;
21000;SDS011;10658;50.920;12.238;2024-01-25T07:49:06;13.95;;;2.83;;
21000;SDS011;10658;50.920;12.238;2024-01-25T07:53:07;5.22;;;2.08;;
21000;SDS011;10658;50.920;12.238;2024-01-25T07:57:10;8.57;;;2.10;;
21000;SDS011;10658;50.920;12.238;2024-01-25T08:01:11;7.32;;;2.10;;
21000;SDS011;10658;50.920;12.238;2024-01-25T08:05:15;7.22;;;2.28;;
21000;SDS011;10658;50.920;12.238;2024-01-25T08:09:16;8.75;;;2.03;;
21000;SDS011;10658;50.920;12.238;2024-01-25T08:13:17;7.32;;;2.60;;
21000;SDS011;10658;50.920;12.238;2024-01-25T08:17:18;12.27;;;2.10;;
21000;SDS011;10658;50.920;12.238;2024-01-25T08:21:19;7.07;;;1.58;;
21000;SDS011;10658;50.920;12.238;2024-01-25T08:25:21;7.97;;;1.85;;
21000;SDS011;10658;50.920;12.238;2024-01-25T08:29:21;10.30;;;2.67;;
21000;SDS011;10658;50.920;12.238;2024-01-25T08:33:22;7.07;;;2.58;;
21000;SDS011;10658;50.920;12.238;2024-01-25T08:37:25;4.95;;;2.10;;
21000;SDS011;10658;50.920;12.238;2024-01-25T08:41:25;7.40;;;2.05;;
21000;SDS011;10658;50.920;12.238;2024-01-25T08:45:26;6.03;;;1.92;;
21000;SDS011;10658;50.920;12.238;2024-01-25T08:49:27;11.18;;;2.38;;
21000;SDS011;10658;50.920;12.238;2024-01-25T08:53:28;8.35;;;1.77;;
21000;SDS011;10658;50.920;12.238;2024-01-25T08:57:29;7.13;;;2.42;;
21000;SDS011;10658;50.920;12.238;2024-01-25T09:01:30;9.40;;;2.38;;
21000;SDS011;10658;50.920;12.238;2024-01-25T09:05:31;9.65;;;2.75;;
21000;SDS011;10658;50.920;12.238;2024-01-25T09:09:35;5.63;;;2.42;;
21000;SDS011;10658;50.920;12.238;2024-01-25T09:13:36;5.72;;;2.40;;
21000;SDS011;10658;50.920;12.238;2024-01-25T09:17:37;1.45;;;0.88;;
21000;SDS011;10658;50.920;12.238;2024-01-25T09:21:38;8.75;;;3.60;;
21000;SDS011;10658;50.920;12.238;2024-01-25T09:25:40;6.60;;;2.03;;
21000;SDS011;10658;50.920;12.238;2024-01-25T09:29:41;8.48;;;1.70;;
21000;SDS011;10658;50.920;12.238;2024-01-25T09:33:42;7.97;;;2.10;;
21000;SDS011;10658;50.920;12.238;2024-01-25T09:37:43;4.03;;;1.25;;
21000;SDS011;10658;50.920;12.238;2024-01-25T09:41:44;8.93;;;2.45;;
21000;SDS011;10658;50.920;12.238;2024-01-25T09:45:45;4.80;;;1.70;;
21000;SDS011;10658;50.920;12.238;2024-01-25T09:49:49;7.63;;;2.33;;
21000;SDS011;10658;50.920;12.238;2024-01-25T09:53:49;9.98;;;2.42;;
21000;SDS011;10658;50.920;12.238;2024-01-25T09:57:54;6.05;;;1.90;;
21000;SDS011;10658;50.920;12.238;2024-01-25T10:01:58;10.32;;;2.05;;
21000;SDS011;10658;50.920;12.238;2024-01-25T10:06:02;10.35;;;2.90;;
21000;SDS011;10658;50.920;12.238;2024-01-25T10:10:04;8.85;;;1.95;;
21000;SDS011;10658;50.920;12.238;2024-01-25T10:14:05;4.43;;;1.95;;
21000;SDS011;10658;50.920;12.238;2024-01-25T10:18:08;6.35;;;2.53;;
21000;SDS011;10658;50.920;12.238;2024-01-25T10:22:13;6.15;;;1.80;;
21000;SDS011;10658;50.920;12.238;2024-01-25T10:26:15;5.00;;;1.60;;
21000;SDS011;10658;50.920;12.238;2024-01-25T10:30:16;6.63;;;1.90;;
21000;SDS011;10658;50.920;12.238;2024-01-25T10:34:17;7.75;;;1.98;;
21000;SDS011;10658;50.920;12.238;2024-01-25T10:38:18;5.28;;;1.98;;
21000;SDS011;10658;50.920;12.238;2024-01-25T10:42:23;7.40;;;1.77;;
21000;SDS011;10658;50.920;12.238;2024-01-25T10:46:24;7.97;;;1.95;;
21000;SDS011;10658;50.920;12.238;2024-01-25T10:50:25;7.15;;;1.63;;
21000;SDS011;10658;50.920;12.238;2024-01-25T10:54:26;8.15;;;2.83;;
21000;SDS011;10658;50.920;12.238;2024-01-25T10:58:31;4.57;;;1.90;;
21000;SDS011;10658;50.920;12.238;2024-01-25T11:02:37;5.40;;;1.50;;
21000;SDS011;10658;50.920;12.238;2024-01-25T11:06:39;4.93;;;1.27;;
21000;SDS011;10658;50.920;12.238;2024-01-25T11:10:40;3.25;;;1.50;;
21000;SDS011;10658;50.920;12.238;2024-01-25T11:14:42;6.47;;;2.25;;
21000;SDS011;10658;50.920;12.238;2024-01-25T11:18:49;3.72;;;1.50;;
21000;SDS011;10658;50.920;12.238;2024-01-25T11:22:58;5.75;;;1.00;;
21000;SDS011;10658;50.920;12.238;2024-01-25T11:27:01;1.83;;;0.95;;
21000;SDS011;10658;50.920;12.238;2024-01-25T11:31:02;6.85;;;1.88;;
21000;SDS011;10658;50.920;12.238;2024-01-25T11:35:07;7.43;;;1.85;;
21000;SDS011;10658;50.920;12.238;2024-01-25T11:39:12;5.80;;;1.67;;
21000;SDS011;10658;50.920;12.238;2024-01-25T11:43:14;8.93;;;1.75;;
21000;SDS011;10658;50.920;12.238;2024-01-25T11:47:17;7.32;;;2.00;;
21000;SDS011;10658;50.920;12.238;2024-01-25T11:51:23;5.70;;;1.40;;
21000;SDS011;10658;50.920;12.238;2024-01-25T11:55:27;5.78;;;1.92;;
21000;SDS011;10658;50.920;12.238;2024-01-25T11:59:28;5.60;;;1.65;;
21000;SDS011;10658;50.920;12.238;2024-01-25T12:03:29;8.60;;;1.80;;
21000;SDS011;10658;50.920;12.238;2024-01-25T12:07:30;3.17;;;1.50;;
21000;SDS011;10658;50.920;12.238;2024-01-25T12:11:31;5.47;;;1.52;;
21000;SDS011;10658;50.920;12.238;2024-01-25T12:15:32;4.65;;;1.90;;
21000;SDS011;10658;50.920;12.238;2024-01-25T12:19:33;5.65;;;1.60;;
21000;SDS011;10658;50.920;12.238;2024-01-25T12:23:35;10.10;;;1.65;;
21000;SDS011;10658;50.920;12.238;2024-01-25T12:27:40;4.10;;;1.63;;
21000;SDS011;10658;50.920;12.238;2024-01-25T12:31:50;7.20;;;2.30;;
21000;SDS011;10658;50.920;12.238;2024-01-25T12:35:52;6.00;;;1.83;;
21000;SDS011;10658;50.920;12.238;2024-01-25T12:39:54;4.60;;;1.58;;
21000;SDS011;10658;50.920;12.238;2024-01-25T12:43:55;5.97;;;1.40;;
21000;SDS011;10658;50.920;12.238;2024-01-25T12:47:56;7.95;;;1.80;;
21000;SDS011;10658;50.920;12.238;2024-01-25T12:51:57;6.90;;;1.65;;
21000;SDS011;10658;50.920;12.238;2024-01-25T12:55:58;13.30;;;2.13;;
21000;SDS011;10658;50.920;12.238;2024-01-25T12:59:58;8.15;;;2.17;;
21000;SDS011;10658;50.920;12.238;2024-01-25T13:04:00;9.60;;;2.72;;
21000;SDS011;10658;50.920;12.238;2024-01-25T13:08:01;9.05;;;2.08;;
21000;SDS011;10658;50.920;12.238;2024-01-25T13:12:05;3.05;;;1.50;;
21000;SDS011;10658;50.920;12.238;2024-01-25T13:16:06;3.83;;;2.10;;
21000;SDS011;10658;50.920;12.238;2024-01-25T13:20:07;10.00;;;2.13;;
21000;SDS011;10658;50.920;12.238;2024-01-25T13:24:08;4.85;;;1.38;;
21000;SDS011;10658;50.920;12.238;2024-01-25T13:28:09;5.47;;;2.05;;
21000;SDS011;10658;50.920;12.238;2024-01-25T13:32:10;6.03;;;1.42;;
21000;SDS011;10658;50.920;12.238;2024-01-25T13:36:11;9.77;;;2.33;;
21000;SDS011;10658;50.920;12.238;2024-01-25T13:40:13;8.90;;;2.40;;
21000;SDS011;10658;50.920;12.238;2024-01-25T13:44:14;4.97;;;1.75;;
21000;SDS011;10658;50.920;12.238;2024-01-25T13:48:15;11.25;;;1.92;;
21000;SDS011;10658;50.920;12.238;2024-01-25T13:52:18;6.03;;;1.90;;
21000;SDS011;10658;50.920;12.238;2024-01-25T13:56:19;6.45;;;1.92;;
21000;SDS011;10658;50.920;12.238;2024-01-25T14:00:20;5.47;;;1.95;;
21000;SDS011;10658;50.920;12.238;2024-01-25T14:04:22;11.57;;;2.65;;
21000;SDS011;10658;50.920;12.238;2024-01-25T14:08:23;12.82;;;3.90;;
21000;SDS011;10658;50.920;12.238;2024-01-25T14:12:24;8.85;;;2.25;;
21000;SDS011;10658;50.920;12.238;2024-01-25T14:16:25;8.93;;;2.55;;
21000;SDS011;10658;50.920;12.238;2024-01-25T14:20:25;8.70;;;2.22;;
21000;SDS011;10658;50.920;12.238;2024-01-25T14:24:26;6.68;;;2.30;;
21000;SDS011;10658;50.920;12.238;2024-01-25T14:28:27;11.00;;;3.50;;
21000;SDS011;10658;50.920;12.238;2024-01-25T14:32:28;4.72;;;1.73;;
21000;SDS011;10658;50.920;12.238;2024-01-25T14:36:33;10.00;;;2.78;;
21000;SDS011;10658;50.920;12.238;2024-01-25T14:40:45;3.67;;;1.95;;
21000;SDS011;10658;50.920;12.238;2024-01-25T14:44:46;8.80;;;1.85;;
21000;SDS011;10658;50.920;12.238;2024-01-25T14:48:47;9.00;;;2.33;;
21000;SDS011;10658;50.920;12.238;2024-01-25T14:52:48;12.32;;;2.30;;
21000;SDS011;10658;50.920;12.238;2024-01-25T14:56:48;6.40;;;2.08;;
21000;SDS011;10658;50.920;12.238;2024-01-25T15:00:50;7.47;;;2.38;;
21000;SDS011;10658;50.920;12.238;2024-01-25T15:04:52;5.85;;;2.10;;
21000;SDS011;10658;50.920;12.238;2024-01-25T15:08:52;3.63;;;1.88;;
21000;SDS011;10658;50.920;12.238;2024-01-25T15:12:53;8.32;;;2.78;;
21000;SDS011;10658;50.920;12.238;2024-01-25T15:16:58;4.38;;;2.03;;
21000;SDS011;10658;50.920;12.238;2024-01-25T15:20:59;8.25;;;2.55;;
21000;SDS011;10658;50.920;12.238;2024-01-25T15:25:01;10.07;;;2.30;;
21000;SDS011;10658;50.920;12.238;2024-01-25T15:29:02;14.35;;;2.63;;
21000;SDS011;10658;50.920;12.238;2024-01-25T15:33:03;16.55;;;2.80;;
21000;SDS011;10658;50.920;12.238;2024-01-25T15:37:05;5.80;;;2.25;;
21000;SDS011;10658;50.920;12.238;2024-01-25T15:41:06;7.22;;;2.17;;
21000;SDS011;10658;50.920;12.238;2024-01-25T15:45:09;7.18;;;2.03;;
21000;SDS011;10658;50.920;12.238;2024-01-25T15:49:10;7.53;;;2.15;;
21000;SDS011;10658;50.920;12.238;2024-01-25T15:53:11;8.02;;;2.72;;
21000;SDS011;10658;50.920;12.238;2024-01-25T15:57:13;6.88;;;1.92;;
21000;SDS011;10658;50.920;12.238;2024-01-25T16:01:14;6.38;;;2.25;;
21000;SDS011;10658;50.920;12.238;2024-01-25T16:05:14;6.53;;;2.95;;
21000;SDS011;10658;50.920;12.238;2024-01-25T16:09:15;8.20;;;1.88;;
21000;SDS011;10658;50.920;12.238;2024-01-25T16:13:18;5.97;;;3.22;;
21000;SDS011;10658;50.920;12.238;2024-01-25T16:17:38;6.30;;;2.97;;
21000;SDS011;10658;50.920;12.238;2024-01-25T16:21:39;12.13;;;2.83;;
21000;SDS011;10658;50.920;12.238;2024-01-25T16:25:40;6.90;;;2.13;;
21000;SDS011;10658;50.920;12.238;2024-01-25T16:29:41;9.05;;;2.33;;
21000;SDS011;10658;50.920;12.238;2024-01-25T16:33:41;4.18;;;2.00;;
21000;SDS011;10658;50.920;12.238;2024-01-25T16:37:42;4.20;;;2.30;;
21000;SDS011;10658;50.920;12.238;2024-01-25T16:41:43;5.82;;;2.00;;
21000;SDS011;10658;50.920;12.238;2024-01-25T16:45:44;7.50;;;1.92;;
21000;SDS011;10658;50.920;12.238;2024-01-25T16:49:45;4.55;;;2.30;;
21000;SDS011;10658;50.920;12.238;2024-01-25T16:53:46;5.93;;;2.78;;
21000;SDS011;10658;50.920;12.238;2024-01-25T16:57:46;6.63;;;2.30;;
21000;SDS011;10658;50.920;12.238;2024-01-25T17:01:47;13.18;;;3.03;;
21000;SDS011;10658;50.920;12.238;2024-01-25T17:05:48;12.43;;;3.88;;
21000;SDS011;10658;50.920;12.238;2024-01-25T17:09:49;13.95;;;5.20;;
21000;SDS011;10658;50.920;12.238;2024-01-25T17:19:26;14.95;;;4.28;;
21000;SDS011;10658;50.920;12.238;2024-01-25T17:23:54;9.05;;;3.50;;
21000;SDS011;10658;50.920;12.238;2024-01-25T17:28:08;9.77;;;3.47;;
21000;SDS011;10658;50.920;12.238;2024-01-25T17:33:20;8.18;;;2.60;;
21000;SDS011;10658;50.920;12.238;2024-01-25T17:37:26;10.25;;;2.95;;
21000;SDS011;10658;50.920;12.238;2024-01-25T17:41:27;12.98;;;4.50;;
21000;SDS011;10658;50.920;12.238;2024-01-25T17:45:55;7.90;;;2.80;;
21000;SDS011;10658;50.920;12.238;2024-01-25T17:49:56;7.43;;;3.55;;
21000;SDS011;10658;50.920;12.238;2024-01-25T17:53:57;5.25;;;2.78;;
21000;SDS011;10658;50.920;12.238;2024-01-25T17:57:58;12.18;;;3.40;;
21000;SDS011;10658;50.920;12.238;2024-01-25T18:01:59;8.80;;;2.72;;
21000;SDS011;10658;50.920;12.238;2024-01-25T18:06:03;9.13;;;2.80;;
21000;SDS011;10658;50.920;12.238;2024-01-25T18:10:04;9.88;;;3.17;;
21000;SDS011;10658;50.920;12.238;2024-01-25T18:14:05;12.73;;;3.70;;
21000;SDS011;10658;50.920;12.238;2024-01-25T18:18:06;8.45;;;3.55;;
21000;SDS011;10658;50.920;12.238;2024-01-25T18:22:06;5.75;;;3.40;;
21000;SDS011;10658;50.920;12.238;2024-01-25T18:26:07;12.98;;;4.18;;
21000;SDS011;10658;50.920;12.238;2024-01-25T18:30:08;8.45;;;3.45;;
21000;SDS011;10658;50.920;12.238;2024-01-25T18:34:10;7.72;;;3.55;;
21000;SDS011;10658;50.920;12.238;2024-01-25T18:38:11;12.35;;;3.47;;
21000;SDS011;10658;50.920;12.238;2024-01-25T18:42:12;6.43;;;3.20;;
21000;SDS011;10658;50.920;12.238;2024-01-25T18:46:13;7.47;;;3.42;;
21000;SDS011;10658;50.920;12.238;2024-01-25T18:50:14;11.43;;;3.17;;
21000;SDS011;10658;50.920;12.238;2024-01-25T18:54:15;8.52;;;3.15;;
21000;SDS011;10658;50.920;12.238;2024-01-25T18:58:16;9.75;;;3.08;;
21000;SDS011;10658;50.920;12.238;2024-01-25T19:02:20;8.90;;;3.80;;
21000;SDS011;10658;50.920;12.238;2024-01-25T19:06:21;7.50;;;2.65;;
21000;SDS011;10658;50.920;12.238;2024-01-25T19:10:27;8.40;;;3.65;;
21000;SDS011;10658;50.920;12.238;2024-01-25T19:14:28;7.70;;;3.92;;
21000;SDS011;10658;50.920;12.238;2024-01-25T19:18:29;9.43;;;4.75;;
21000;SDS011;10658;50.920;12.238;2024-01-25T19:22:30;12.75;;;5.90;;
21000;SDS011;10658;50.920;12.238;2024-01-25T19:26:31;23.25;;;8.07;;
21000;SDS011;10658;50.920;12.238;2024-01-25T19:30:31;25.05;;;10.40;;
21000;SDS011;10658;50.920;12.238;2024-01-25T19:34:33;18.27;;;7.88;;
21000;SDS011;10658;50.920;12.238;2024-01-25T19:38:34;15.00;;;5.22;;
21000;SDS011;10658;50.920;12.238;2024-01-25T19:42:41;9.95;;;5.22;;
21000;SDS011;10658;50.920;12.238;2024-01-25T19:46:42;14.07;;;6.15;;
21000;SDS011;10658;50.920;12.238;2024-01-25T19:50:43;10.23;;;4.20;;
21000;SDS011;10658;50.920;12.238;2024-01-25T19:54:44;15.05;;;6.53;;
21000;SDS011;10658;50.920;12.238;2024-01-25T19:58:50;21.27;;;6.93;;
21000;SDS011;10658;50.920;12.238;2024-01-25T20:02:53;12.00;;;5.28;;
21000;SDS011;10658;50.920;12.238;2024-01-25T20:06:57;14.98;;;7.35;;
21000;SDS011;10658;50.920;12.238;2024-01-25T20:10:59;11.73;;;7.38;;
21000;SDS011;10658;50.920;12.238;2024-01-25T20:15:00;9.07;;;4.90;;
21000;SDS011;10658;50.920;12.238;2024-01-25T20:19:01;12.10;;;5.25;;
21000;SDS011;10658;50.920;12.238;2024-01-25T20:23:01;9.15;;;4.65;;
21000;SDS011;10658;50.920;12.238;2024-01-25T20:27:15;9.32;;;3.90;;
21000;SDS011;10658;50.920;12.238;2024-01-25T20:31:57;7.60;;;3.97;;
21000;SDS011;10658;50.920;12.238;2024-01-25T20:35:58;16.23;;;5.88;;
21000;SDS011;10658;50.920;12.238;2024-01-25T20:40:00;6.00;;;3.33;;
21000;SDS011;10658;50.920;12.238;2024-01-25T20:44:01;17.95;;;5.25;;
21000;SDS011;10658;50.920;12.238;2024-01-25T20:48:02;11.63;;;4.88;;
21000;SDS011;10658;50.920;12.238;2024-01-25T20:52:03;6.15;;;3.38;;
21000;SDS011;10658;50.920;12.238;2024-01-25T20:56:06;9.18;;;4.43;;
21000;SDS011;10658;50.920;12.238;2024-01-25T21:00:07;9.18;;;3.90;;
21000;SDS011;10658;50.920;12.238;2024-01-25T21:04:10;9.07;;;4.43;;
21000;SDS011;10658;50.920;12.238;2024-01-25T21:08:14;10.52;;;4.68;;
21000;SDS011;10658;50.920;12.238;2024-01-25T21:12:15;11.00;;;5.05;;
21000;SDS011;10658;50.920;12.238;2024-01-25T21:16:16;9.50;;;4.15;;
21000;SDS011;10658;50.920;12.238;2024-01-25T21:20:17;9.07;;;4.38;;
21000;SDS011;10658;50.920;12.238;2024-01-25T21:24:19;15.23;;;5.25;;
21000;SDS011;10658;50.920;12.238;2024-01-25T21:28:19;11.68;;;5.03;;
21000;SDS011;10658;50.920;12.238;2024-01-25T21:32:20;22.30;;;6.15;;
21000;SDS011;10658;50.920;12.238;2024-01-25T21:36:21;12.90;;;4.95;;
21000;SDS011;10658;50.920;12.238;2024-01-25T21:40:22;8.73;;;4.15;;
21000;SDS011;10658;50.920;12.238;2024-01-25T21:44:23;14.77;;;5.05;;
21000;SDS011;10658;50.920;12.238;2024-01-25T21:48:24;13.60;;;4.15;;
21000;SDS011;10658;50.920;12.238;2024-01-25T21:52:25;14.98;;;4.93;;
21000;SDS011;10658;50.920;12.238;2024-01-25T21:56:25;12.93;;;5.20;;
21000;SDS011;10658;50.920;12.238;2024-01-25T22:00:26;12.30;;;6.25;;
21000;SDS011;10658;50.920;12.238;2024-01-25T22:04:27;10.95;;;5.53;;
21000;SDS011;10658;50.920;12.238;2024-01-25T22:08:28;9.27;;;4.57;;
21000;SDS011;10658;50.920;12.238;2024-01-25T22:12:29;18.90;;;5.93;;
21000;SDS011;10658;50.920;12.238;2024-01-25T22:16:30;14.18;;;4.45;;
21000;SDS011;10658;50.920;12.238;2024-01-25T22:20:30;12.60;;;5.50;;
21000;SDS011;10658;50.920;12.238;2024-01-25T22:24:31;15.00;;;5.68;;
21000;SDS011;10658;50.920;12.238;2024-01-25T22:28:32;12.30;;;4.82;;
21000;SDS011;10658;50.920;12.238;2024-01-25T22:32:33;12.40;;;4.70;;
21000;SDS011;10658;50.920;12.238;2024-01-25T22:36:34;11.85;;;6.55;;
21000;SDS011;10658;50.920;12.238;2024-01-25T22:40:35;12.77;;;6.40;;
21000;SDS011;10658;50.920;12.238;2024-01-25T22:44:36;13.77;;;5.35;;
21000;SDS011;10658;50.920;12.238;2024-01-25T22:48:37;12.65;;;5.00;;
21000;SDS011;10658;50.920;12.238;2024-01-25T22:52:37;15.90;;;6.20;;
21000;SDS011;10658;50.920;12.238;2024-01-25T22:56:38;13.80;;;7.07;;
21000;SDS011;10658;50.920;12.238;2024-01-25T23:00:39;17.70;;;7.75;;
21000;SDS011;10658;50.920;12.238;2024-01-25T23:04:40;27.65;;;11.80;;
21000;SDS011;10658;50.920;12.238;2024-01-25T23:08:41;24.50;;;9.35;;
21000;SDS011;10658;50.920;12.238;2024-01-25T23:12:42;12.30;;;5.22;;
21000;SDS011;10658;50.920;12.238;2024-01-25T23:16:43;11.80;;;4.60;;
21000;SDS011;10658;50.920;12.238;2024-01-25T23:20:44;11.55;;;4.80;;
21000;SDS011;10658;50.920;12.238;2024-01-25T23:24:45;11.65;;;4.18;;
21000;SDS011;10658;50.920;12.238;2024-01-25T23:28:46;8.65;;;3.60;;
21000;SDS011;10658;50.920;12.238;2024-01-25T23:32:47;7.93;;;3.88;;
21000;SDS011;10658;50.920;12.238;2024-01-25T23:36:47;8.38;;;3.90;;
21000;SDS011;10658;50.920;12.238;2024-01-25T23:40:49;10.82;;;3.75;;
21000;SDS011;10658;50.920;12.238;2024-01-25T23:44:50;9.35;;;3.83;;
21000;SDS011;10658;50.920;12.238;2024-01-25T23:48:51;14.55;;;4.68;;
21000;SDS011;10658;50.920;12.238;2024-01-25T23:52:52;14.52;;;4.55;;